Weather at Kuala Lumpur International Airport

Public forecast

Using degrees Celsius for public forecast. Weather courtesy of forecast.io.

Current aviation weather report (METAR) for Kuala Lumpur International Airport

Retrieved 2021/11/29 16:30 UTC (34 minutes ago):

WMKK 291630Z 32004KT 280V010 9999 FEW017CB 26/23 Q1009 NOSIG

Aviation forecast (TAF) for Kuala Lumpur International Airport

Retrieved 2021/11/29 12:10 UTC (5 hours ago):

TAF WMKK 291100Z 2912/3018 32006KT 9999 FEW030